CMB566 EPPW-EPRZ
Flight info
| Callsign | CMB566 |
|---|---|
| Flight time | 0h 47m |
| Altitude | 33000 |
| Route | CI2LZ DCT UTOLU DCT NUBLI DCT ETITI |
| Aircraft | B744/H-SDE3FGHIM1M2RWXY/LB1 |
Departure
| Time | 2026-04-20 15:35 |
|---|---|
| Airport | Powidz Military Air Base (EPPW) |
Arrival
| Time | 2026-04-20 16:23 |
|---|---|
| Airport | Rzeszów-Jasionka Airport (EPRZ) |
| Time | Latitude | Longitude | Altitude | Speed | Heading |
|---|---|---|---|---|---|
| 2026-04-20 15:18 | 52.38853 | 17.82899 | 378 ft | 0 kts | 102° |
| 2026-04-20 15:33 | 52.38847 | 17.82945 | 378 ft | 7 kts | 106° |
| 2026-04-20 15:33 | 52.38811 | 17.82998 | 377 ft | 9 kts | 179° |
| 2026-04-20 15:33 | 52.38716 | 17.82989 | 375 ft | 18 kts | 188° |
| 2026-04-20 15:33 | 52.38560 | 17.82922 | 369 ft | 28 kts | 195° |
| 2026-04-20 15:34 | 52.38407 | 17.82843 | 366 ft | 19 kts | 186° |
| 2026-04-20 15:34 | 52.38351 | 17.82912 | 364 ft | 6 kts | 106° |
| 2026-04-20 15:34 | 52.38351 | 17.82916 | 364 ft | 0 kts | 106° |
| 2026-04-20 15:34 | 52.38338 | 17.82988 | 364 ft | 27 kts | 107° |
| 2026-04-20 15:35 | 52.38198 | 17.83716 | 368 ft | 109 kts | 108° |
| 2026-04-20 15:35 | 52.37892 | 17.85274 | 518 ft | 167 kts | 106° |
| 2026-04-20 15:35 | 52.37514 | 17.87182 | 1197 ft | 191 kts | 105° |
| 2026-04-20 15:35 | 52.37132 | 17.89160 | 2395 ft | 186 kts | 106° |
| 2026-04-20 15:36 | 52.36737 | 17.91094 | 3298 ft | 180 kts | 105° |
| 2026-04-20 15:36 | 52.36349 | 17.93021 | 3969 ft | 179 kts | 104° |
| 2026-04-20 15:36 | 52.35975 | 17.94925 | 4584 ft | 179 kts | 104° |
| 2026-04-20 15:36 | 52.35598 | 17.96855 | 5102 ft | 184 kts | 104° |
| 2026-04-20 15:37 | 52.35212 | 17.98838 | 5734 ft | 185 kts | 104° |
| 2026-04-20 15:37 | 52.34826 | 18.00828 | 6313 ft | 189 kts | 103° |
| 2026-04-20 15:37 | 52.34429 | 18.02903 | 6798 ft | 197 kts | 103° |
| 2026-04-20 15:37 | 52.34029 | 18.05047 | 7373 ft | 198 kts | 103° |
| 2026-04-20 15:38 | 52.33599 | 18.07184 | 7886 ft | 204 kts | 113° |
| 2026-04-20 15:38 | 52.32755 | 18.09048 | 8373 ft | 214 kts | 128° |
| 2026-04-20 15:38 | 52.31715 | 18.10859 | 8864 ft | 220 kts | 128° |
| 2026-04-20 15:38 | 52.30683 | 18.12755 | 9344 ft | 227 kts | 128° |
| 2026-04-20 15:39 | 52.29633 | 18.14672 | 9895 ft | 231 kts | 128° |
| 2026-04-20 15:39 | 52.28561 | 18.16640 | 10443 ft | 233 kts | 128° |
| 2026-04-20 15:39 | 52.27497 | 18.18578 | 10942 ft | 235 kts | 128° |
| 2026-04-20 15:39 | 52.26391 | 18.20584 | 11434 ft | 238 kts | 128° |
| 2026-04-20 15:40 | 52.25286 | 18.22600 | 11895 ft | 241 kts | 128° |
| 2026-04-20 15:40 | 52.24168 | 18.24638 | 12327 ft | 245 kts | 128° |
| 2026-04-20 15:40 | 52.23026 | 18.26720 | 12737 ft | 250 kts | 128° |
| 2026-04-20 15:40 | 52.21864 | 18.28835 | 13116 ft | 255 kts | 128° |
| 2026-04-20 15:41 | 52.20665 | 18.31015 | 13450 ft | 262 kts | 128° |
| 2026-04-20 15:41 | 52.19431 | 18.33256 | 13709 ft | 272 kts | 128° |
| 2026-04-20 15:41 | 52.18181 | 18.35528 | 13871 ft | 284 kts | 128° |
| 2026-04-20 15:41 | 52.16847 | 18.37951 | 13877 ft | 302 kts | 128° |
| 2026-04-20 15:42 | 52.15396 | 18.40589 | 13652 ft | 325 kts | 129° |
| 2026-04-20 15:42 | 52.13873 | 18.43353 | 13766 ft | 334 kts | 129° |
| 2026-04-20 15:42 | 52.12339 | 18.46129 | 14087 ft | 335 kts | 129° |
| 2026-04-20 15:42 | 52.10781 | 18.48947 | 14408 ft | 336 kts | 129° |
| 2026-04-20 15:43 | 52.09214 | 18.51777 | 14708 ft | 338 kts | 129° |
| 2026-04-20 15:43 | 52.07650 | 18.54601 | 15024 ft | 339 kts | 129° |
| 2026-04-20 15:43 | 52.06078 | 18.57435 | 15328 ft | 340 kts | 129° |
| 2026-04-20 15:43 | 52.04480 | 18.60314 | 15604 ft | 342 kts | 129° |
| 2026-04-20 15:44 | 52.02891 | 18.63170 | 15863 ft | 344 kts | 129° |
| 2026-04-20 15:44 | 52.01281 | 18.66050 | 16142 ft | 346 kts | 130° |
| 2026-04-20 15:44 | 51.99669 | 18.68934 | 16415 ft | 347 kts | 130° |
| 2026-04-20 15:44 | 51.98045 | 18.71845 | 16673 ft | 349 kts | 130° |
| 2026-04-20 15:45 | 51.96411 | 18.74762 | 16941 ft | 350 kts | 130° |
| 2026-04-20 15:45 | 51.94778 | 18.77684 | 17189 ft | 352 kts | 130° |
| 2026-04-20 15:45 | 51.93154 | 18.80590 | 17437 ft | 353 kts | 131° |
| 2026-04-20 15:45 | 51.91484 | 18.83567 | 17696 ft | 355 kts | 131° |
| 2026-04-20 15:46 | 51.89841 | 18.86493 | 17954 ft | 357 kts | 131° |
| 2026-04-20 15:46 | 51.88223 | 18.89543 | 18189 ft | 359 kts | 128° |
| 2026-04-20 15:46 | 51.86630 | 18.92671 | 18456 ft | 360 kts | 129° |
| 2026-04-20 15:46 | 51.85024 | 18.95747 | 18683 ft | 364 kts | 129° |
| 2026-04-20 15:47 | 51.83361 | 18.98968 | 18944 ft | 382 kts | 129° |
| 2026-04-20 15:47 | 51.81629 | 19.02293 | 19160 ft | 399 kts | 129° |
| 2026-04-20 15:47 | 51.79834 | 19.05747 | 19269 ft | 413 kts | 129° |
| 2026-04-20 15:47 | 51.77951 | 19.09352 | 19279 ft | 423 kts | 129° |
| 2026-04-20 15:48 | 51.76072 | 19.12951 | 19221 ft | 424 kts | 129° |
| 2026-04-20 15:48 | 51.74186 | 19.16552 | 19118 ft | 415 kts | 129° |
| 2026-04-20 15:48 | 51.72363 | 19.20033 | 19036 ft | 410 kts | 129° |
| 2026-04-20 15:48 | 51.70543 | 19.23500 | 18991 ft | 408 kts | 129° |
| 2026-04-20 15:49 | 51.68718 | 19.26973 | 18983 ft | 406 kts | 129° |
| 2026-04-20 15:49 | 51.66920 | 19.30392 | 18998 ft | 407 kts | 129° |
| 2026-04-20 15:49 | 51.65103 | 19.33844 | 19020 ft | 407 kts | 129° |
| 2026-04-20 15:49 | 51.63277 | 19.37309 | 19040 ft | 407 kts | 129° |
| 2026-04-20 15:50 | 51.61455 | 19.40757 | 19046 ft | 408 kts | 129° |
| 2026-04-20 15:50 | 51.59619 | 19.44228 | 19044 ft | 409 kts | 129° |
| 2026-04-20 15:50 | 51.57791 | 19.47680 | 19044 ft | 408 kts | 129° |
| 2026-04-20 15:50 | 51.55964 | 19.51129 | 19039 ft | 408 kts | 129° |
| 2026-04-20 15:51 | 51.54133 | 19.54576 | 19036 ft | 408 kts | 129° |
| 2026-04-20 15:51 | 51.52320 | 19.57990 | 19039 ft | 408 kts | 129° |
| 2026-04-20 15:51 | 51.50485 | 19.61441 | 19031 ft | 407 kts | 129° |
| 2026-04-20 15:51 | 51.48672 | 19.64845 | 19045 ft | 407 kts | 129° |
| 2026-04-20 15:52 | 51.46856 | 19.68247 | 19038 ft | 406 kts | 130° |
| 2026-04-20 15:52 | 51.45054 | 19.71618 | 19030 ft | 406 kts | 130° |
| 2026-04-20 15:52 | 51.43224 | 19.75033 | 19026 ft | 405 kts | 130° |
| 2026-04-20 15:53 | 51.39613 | 19.81771 | 19040 ft | 405 kts | 130° |
| 2026-04-20 15:53 | 51.37786 | 19.85178 | 19039 ft | 405 kts | 130° |
| 2026-04-20 15:53 | 51.35983 | 19.88515 | 19021 ft | 405 kts | 132° |
| 2026-04-20 15:53 | 51.33934 | 19.91551 | 19013 ft | 405 kts | 139° |
| 2026-04-20 15:54 | 51.31836 | 19.94486 | 19031 ft | 406 kts | 137° |
| 2026-04-20 15:54 | 51.29745 | 19.97474 | 19050 ft | 406 kts | 138° |
| 2026-04-20 15:54 | 51.27659 | 20.00413 | 19053 ft | 405 kts | 137° |
| 2026-04-20 15:54 | 51.25591 | 20.03349 | 19039 ft | 405 kts | 138° |
| 2026-04-20 15:55 | 51.23517 | 20.06271 | 19032 ft | 404 kts | 138° |
| 2026-04-20 15:55 | 51.21447 | 20.09195 | 19035 ft | 404 kts | 137° |
| 2026-04-20 15:55 | 51.19346 | 20.12159 | 19031 ft | 405 kts | 138° |
| 2026-04-20 15:55 | 51.17265 | 20.15088 | 19037 ft | 405 kts | 138° |
| 2026-04-20 15:56 | 51.15164 | 20.18049 | 19034 ft | 406 kts | 138° |
| 2026-04-20 15:56 | 51.13035 | 20.21032 | 19030 ft | 405 kts | 138° |
| 2026-04-20 15:56 | 51.10958 | 20.23942 | 19026 ft | 406 kts | 138° |
| 2026-04-20 15:56 | 51.08866 | 20.26870 | 19030 ft | 405 kts | 137° |
| 2026-04-20 15:57 | 51.06738 | 20.29848 | 19021 ft | 405 kts | 138° |
| 2026-04-20 15:57 | 51.04648 | 20.32771 | 19016 ft | 405 kts | 137° |
| 2026-04-20 15:57 | 51.02574 | 20.35667 | 19020 ft | 405 kts | 138° |
| 2026-04-20 15:57 | 51.00476 | 20.38594 | 19019 ft | 405 kts | 137° |
| 2026-04-20 15:58 | 50.98360 | 20.41540 | 19027 ft | 405 kts | 137° |
| 2026-04-20 15:58 | 50.96257 | 20.44465 | 19026 ft | 405 kts | 137° |
| 2026-04-20 15:58 | 50.94159 | 20.47383 | 19017 ft | 405 kts | 137° |
| 2026-04-20 15:58 | 50.92063 | 20.50287 | 19008 ft | 405 kts | 137° |
| 2026-04-20 15:59 | 50.89984 | 20.53170 | 19013 ft | 405 kts | 137° |
| 2026-04-20 15:59 | 50.87861 | 20.56108 | 19013 ft | 405 kts | 137° |
| 2026-04-20 15:59 | 50.85761 | 20.59012 | 19021 ft | 406 kts | 137° |
| 2026-04-20 15:59 | 50.83658 | 20.61919 | 19017 ft | 407 kts | 137° |
| 2026-04-20 16:00 | 50.81545 | 20.64833 | 19012 ft | 408 kts | 137° |
| 2026-04-20 16:00 | 50.79426 | 20.67755 | 19018 ft | 408 kts | 139° |
| 2026-04-20 16:00 | 50.77289 | 20.70690 | 19016 ft | 409 kts | 139° |
| 2026-04-20 16:00 | 50.75182 | 20.73586 | 19018 ft | 409 kts | 139° |
| 2026-04-20 16:01 | 50.73092 | 20.76449 | 19014 ft | 410 kts | 139° |
| 2026-04-20 16:01 | 50.70959 | 20.79373 | 19012 ft | 410 kts | 139° |
| 2026-04-20 16:01 | 50.68863 | 20.82244 | 19010 ft | 409 kts | 139° |
| 2026-04-20 16:01 | 50.66838 | 20.85010 | 18992 ft | 409 kts | 139° |
| 2026-04-20 16:02 | 50.64653 | 20.87995 | 18955 ft | 405 kts | 139° |
| 2026-04-20 16:02 | 50.62604 | 20.90794 | 18850 ft | 385 kts | 139° |
| 2026-04-20 16:02 | 50.60668 | 20.93437 | 18645 ft | 365 kts | 139° |
| 2026-04-20 16:02 | 50.58818 | 20.95957 | 18378 ft | 359 kts | 139° |
| 2026-04-20 16:03 | 50.56949 | 20.98495 | 18189 ft | 361 kts | 139° |
| 2026-04-20 16:03 | 50.55077 | 21.01033 | 18019 ft | 353 kts | 139° |
| 2026-04-20 16:03 | 50.53245 | 21.03516 | 17811 ft | 344 kts | 139° |
| 2026-04-20 16:03 | 50.51450 | 21.05950 | 17645 ft | 346 kts | 139° |
| 2026-04-20 16:04 | 50.49634 | 21.08399 | 17529 ft | 350 kts | 139° |
| 2026-04-20 16:04 | 50.47779 | 21.10897 | 17418 ft | 351 kts | 139° |
| 2026-04-20 16:04 | 50.45942 | 21.13377 | 17292 ft | 351 kts | 139° |
| 2026-04-20 16:04 | 50.44099 | 21.15867 | 17179 ft | 351 kts | 139° |
| 2026-04-20 16:05 | 50.42251 | 21.18362 | 17105 ft | 349 kts | 139° |
| 2026-04-20 16:05 | 50.40449 | 21.20865 | 16997 ft | 349 kts | 134° |
| 2026-04-20 16:05 | 50.39029 | 21.23836 | 16717 ft | 351 kts | 117° |
| 2026-04-20 16:05 | 50.38084 | 21.27281 | 16354 ft | 343 kts | 110° |
| 2026-04-20 16:06 | 50.37245 | 21.30591 | 15962 ft | 332 kts | 111° |
| 2026-04-20 16:06 | 50.36445 | 21.33595 | 15625 ft | 336 kts | 111° |
| 2026-04-20 16:06 | 50.35539 | 21.37041 | 15239 ft | 339 kts | 111° |
| 2026-04-20 16:06 | 50.34710 | 21.40148 | 14873 ft | 330 kts | 111° |
| 2026-04-20 16:07 | 50.33843 | 21.43385 | 14469 ft | 329 kts | 111° |
| 2026-04-20 16:07 | 50.32970 | 21.46656 | 14113 ft | 332 kts | 111° |
| 2026-04-20 16:07 | 50.32093 | 21.49926 | 13756 ft | 324 kts | 111° |
| 2026-04-20 16:07 | 50.31226 | 21.53171 | 13388 ft | 324 kts | 111° |
| 2026-04-20 16:08 | 50.30366 | 21.56373 | 13053 ft | 320 kts | 111° |
| 2026-04-20 16:08 | 50.29509 | 21.59563 | 12825 ft | 321 kts | 111° |
| 2026-04-20 16:08 | 50.28542 | 21.62716 | 12530 ft | 328 kts | 120° |
| 2026-04-20 16:08 | 50.27281 | 21.65727 | 12052 ft | 329 kts | 122° |
| 2026-04-20 16:09 | 50.26084 | 21.68644 | 11270 ft | 311 kts | 121° |
| 2026-04-20 16:09 | 50.24978 | 21.71329 | 10619 ft | 281 kts | 121° |
| 2026-04-20 16:09 | 50.23975 | 21.73763 | 10372 ft | 262 kts | 121° |
| 2026-04-20 16:09 | 50.22979 | 21.76205 | 10490 ft | 273 kts | 121° |
| 2026-04-20 16:10 | 50.21941 | 21.78746 | 10744 ft | 281 kts | 121° |
| 2026-04-20 16:10 | 50.20899 | 21.81306 | 10954 ft | 284 kts | 121° |
| 2026-04-20 16:10 | 50.19883 | 21.84006 | 10888 ft | 293 kts | 112° |
| 2026-04-20 16:10 | 50.19374 | 21.87012 | 10422 ft | 282 kts | 92° |
| 2026-04-20 16:11 | 50.19371 | 21.89921 | 9940 ft | 261 kts | 86° |
| 2026-04-20 16:11 | 50.19387 | 21.92686 | 9787 ft | 255 kts | 89° |
| 2026-04-20 16:11 | 50.19369 | 21.95499 | 9871 ft | 265 kts | 89° |
| 2026-04-20 16:11 | 50.19354 | 21.98416 | 9941 ft | 273 kts | 89° |
| 2026-04-20 16:12 | 50.19322 | 22.01411 | 9651 ft | 286 kts | 90° |
| 2026-04-20 16:12 | 50.19278 | 22.04495 | 9014 ft | 281 kts | 89° |
| 2026-04-20 16:12 | 50.19242 | 22.07418 | 8252 ft | 263 kts | 90° |
| 2026-04-20 16:12 | 50.19205 | 22.10144 | 7482 ft | 246 kts | 89° |
| 2026-04-20 16:13 | 50.19171 | 22.12725 | 6709 ft | 236 kts | 90° |
| 2026-04-20 16:13 | 50.19137 | 22.15252 | 5940 ft | 235 kts | 90° |
| 2026-04-20 16:13 | 50.19089 | 22.17749 | 5179 ft | 232 kts | 90° |
| 2026-04-20 16:13 | 50.19040 | 22.20204 | 4410 ft | 226 kts | 90° |
| 2026-04-20 16:14 | 50.18998 | 22.22593 | 3642 ft | 220 kts | 90° |
| 2026-04-20 16:14 | 50.18955 | 22.24903 | 2924 ft | 215 kts | 89° |
| 2026-04-20 16:14 | 50.18912 | 22.27199 | 2734 ft | 212 kts | 89° |
| 2026-04-20 16:14 | 50.18874 | 22.29527 | 2670 ft | 219 kts | 89° |
| 2026-04-20 16:15 | 50.18746 | 22.31935 | 2578 ft | 226 kts | 102° |
| 2026-04-20 16:15 | 50.18042 | 22.34134 | 2532 ft | 233 kts | 126° |
| 2026-04-20 16:15 | 50.16894 | 22.35921 | 2543 ft | 237 kts | 133° |
| 2026-04-20 16:15 | 50.15693 | 22.37716 | 2552 ft | 240 kts | 131° |
| 2026-04-20 16:16 | 50.14502 | 22.39541 | 2560 ft | 243 kts | 132° |
| 2026-04-20 16:16 | 50.13282 | 22.41393 | 2570 ft | 245 kts | 132° |
| 2026-04-20 16:16 | 50.12027 | 22.43223 | 2540 ft | 250 kts | 140° |
| 2026-04-20 16:16 | 50.10467 | 22.44395 | 2515 ft | 257 kts | 162° |
| 2026-04-20 16:17 | 50.08668 | 22.44558 | 2522 ft | 263 kts | 185° |
| 2026-04-20 16:17 | 50.06914 | 22.43641 | 2507 ft | 267 kts | 208° |
| 2026-04-20 16:17 | 50.05502 | 22.41787 | 2505 ft | 270 kts | 230° |
| 2026-04-20 16:17 | 50.04612 | 22.39263 | 2492 ft | 270 kts | 252° |
| 2026-04-20 16:18 | 50.04371 | 22.36388 | 2483 ft | 267 kts | 275° |
| 2026-04-20 16:18 | 50.04841 | 22.33663 | 2467 ft | 261 kts | 302° |
| 2026-04-20 16:18 | 50.06005 | 22.31582 | 2482 ft | 256 kts | 322° |
| 2026-04-20 16:18 | 50.07309 | 22.29700 | 2499 ft | 259 kts | 316° |
| 2026-04-20 16:19 | 50.08460 | 22.27563 | 2491 ft | 252 kts | 309° |
| 2026-04-20 16:19 | 50.09414 | 22.25406 | 2454 ft | 235 kts | 304° |
| 2026-04-20 16:19 | 50.10164 | 22.23324 | 2491 ft | 209 kts | 299° |
| 2026-04-20 16:19 | 50.10651 | 22.21377 | 2422 ft | 187 kts | 283° |
| 2026-04-20 16:20 | 50.10732 | 22.19488 | 2474 ft | 165 kts | 272° |
| 2026-04-20 16:20 | 50.10750 | 22.17731 | 2496 ft | 160 kts | 275° |
| 2026-04-20 16:20 | 50.10798 | 22.16010 | 2274 ft | 157 kts | 274° |
| 2026-04-20 16:20 | 50.10811 | 22.14377 | 2022 ft | 150 kts | 274° |
| 2026-04-20 16:21 | 50.10840 | 22.12772 | 1810 ft | 149 kts | 276° |
| 2026-04-20 16:21 | 50.10870 | 22.11172 | 1581 ft | 147 kts | 274° |
| 2026-04-20 16:21 | 50.10891 | 22.09603 | 1358 ft | 144 kts | 274° |
| 2026-04-20 16:21 | 50.10916 | 22.08097 | 1151 ft | 142 kts | 274° |
| 2026-04-20 16:22 | 50.10936 | 22.06575 | 961 ft | 142 kts | 272° |
| 2026-04-20 16:22 | 50.10951 | 22.05050 | 761 ft | 142 kts | 273° |
| 2026-04-20 16:22 | 50.10969 | 22.03539 | 680 ft | 135 kts | 273° |
| 2026-04-20 16:22 | 50.10992 | 22.02326 | 685 ft | 88 kts | 270° |
| 2026-04-20 16:23 | 50.10996 | 22.01748 | 690 ft | 31 kts | 272° |
| 2026-04-20 16:23 | 50.10999 | 22.01600 | 691 ft | 12 kts | 271° |
| 2026-04-20 16:23 | 50.11005 | 22.01392 | 692 ft | 25 kts | 275° |
| 2026-04-20 16:23 | 50.11053 | 22.01132 | 692 ft | 18 kts | 297° |
| 2026-04-20 16:24 | 50.11093 | 22.01023 | 692 ft | 8 kts | 313° |
| 2026-04-20 16:24 | 50.11129 | 22.00930 | 692 ft | 13 kts | 300° |
| 2026-04-20 16:24 | 50.11183 | 22.00885 | 692 ft | 6 kts | 359° |
| 2026-04-20 16:24 | 50.11213 | 22.00885 | 693 ft | 2 kts | 0° |
| 2026-04-20 16:25 | 50.11221 | 22.00885 | 693 ft | 2 kts | 1° |
| 2026-04-20 16:25 | 50.11249 | 22.00886 | 693 ft | 4 kts | 1° |
| 2026-04-20 16:25 | 50.11257 | 22.00886 | 693 ft | 0 kts | 1° |